Time;durP1;ratioP1;P1;durP2;ratioP2;P2;SDS_P1;SDS_P2;PMS_P1;PMS_P2;Temp;Humidity;BMP_temperature;BMP_pressure;BME280_temperature;BME280_humidity;BME280_pressure;Samples;Min_cycle;Max_cycle;Signal;HPM_P1;HPM_P2
2023/10/14 00:01:13;;;;;;;6.90;3.80;;;;;;;;;;6215717;23;20448;-67
2023/10/14 00:03:43;;;;;;;4.95;3.85;;;;;;;;;;6242948;23;20094;-68
2023/10/14 00:06:11;;;;;;;9.85;4.15;;;;;;;;;;6216047;23;20797;-68
2023/10/14 00:08:47;;;;;;;7.00;3.55;;;;;;;;;;6216659;23;20024;-68
2023/10/14 00:11:13;;;;;;;4.15;3.63;;;;;;;;;;6242469;23;20020;-69
2023/10/14 00:13:42;;;;;;;6.55;3.30;;;;;;;;;;6191024;23;20410;-69
2023/10/14 00:16:25;;;;;;;8.38;3.60;;;;;;;;;;6242657;23;20098;-68
2023/10/14 00:18:51;;;;;;;4.45;3.00;;;;;;;;;;6242516;23;20016;-67
2023/10/14 00:21:17;;;;;;;9.45;3.70;;;;;;;;;;6190880;23;20012;-70
2023/10/14 00:23:43;;;;;;;7.45;3.00;;;;;;;;;;6215475;23;20105;-69
2023/10/14 00:26:14;;;;;;;5.90;3.35;;;;;;;;;;6242607;23;20035;-66
2023/10/14 00:28:45;;;;;;;6.28;3.17;;;;;;;;;;6191327;23;20027;-68
2023/10/14 00:31:15;;;;;;;7.55;3.88;;;;;;;;;;6215715;23;20012;-68
2023/10/14 00:33:41;;;;;;;11.48;3.50;;;;;;;;;;6215785;23;20020;-67
2023/10/14 00:36:10;;;;;;;5.45;3.85;;;;;;;;;;6242069;23;20012;-66
2023/10/14 00:38:43;;;;;;;6.53;3.40;;;;;;;;;;6242612;23;20054;-68
2023/10/14 00:41:09;;;;;;;5.82;3.70;;;;;;;;;;6216656;23;20109;-67
2023/10/14 00:43:36;;;;;;;6.97;3.63;;;;;;;;;;6242596;23;20107;-69
2023/10/14 00:46:05;;;;;;;3.78;3.38;;;;;;;;;;6215577;23;20012;-68
2023/10/14 00:48:34;;;;;;;7.47;3.85;;;;;;;;;;6190754;23;20016;-69
2023/10/14 00:51:01;;;;;;;6.60;4.15;;;;;;;;;;6215583;23;20464;-69
2023/10/14 00:53:28;;;;;;;7.93;3.85;;;;;;;;;;6215716;23;20452;-67
2023/10/14 00:55:54;;;;;;;6.28;4.63;;;;;;;;;;6243004;23;20396;-68
2023/10/14 00:58:21;;;;;;;7.13;3.88;;;;;;;;;;6242965;23;20012;-69
2023/10/14 01:01:06;;;;;;;7.78;4.22;;;;;;;;;;6243129;23;20145;-69
2023/10/14 01:03:36;;;;;;;11.75;4.63;;;;;;;;;;6217726;23;20065;-68
2023/10/14 01:06:54;;;;;;;8.38;4.55;;;;;;;;;;6217772;23;20008;-68
2023/10/14 01:08:53;;;;;;;6.65;4.47;;;;;;;;;;6208991;23;20357;-69
2023/10/14 01:11:20;;;;;;;5.40;3.42;;;;;;;;;;6242009;23;20020;-68
2023/10/14 01:13:46;;;;;;;13.30;3.83;;;;;;;;;;6243171;23;20086;-69
2023/10/14 01:16:15;;;;;;;6.50;4.35;;;;;;;;;;6215921;23;20016;-68
2023/10/14 01:18:44;;;;;;;6.68;3.80;;;;;;;;;;6242265;23;20362;-68
2023/10/14 01:21:10;;;;;;;9.48;3.97;;;;;;;;;;6241922;23;20051;-70
2023/10/14 01:23:38;;;;;;;4.63;3.95;;;;;;;;;;6242601;23;20054;-69
2023/10/14 01:26:05;;;;;;;8.35;4.47;;;;;;;;;;6215538;23;20008;-67
2023/10/14 01:28:32;;;;;;;7.65;4.07;;;;;;;;;;6215615;23;20023;-65
2023/10/14 01:31:06;;;;;;;10.55;4.03;;;;;;;;;;6241795;23;20452;-67
2023/10/14 01:33:35;;;;;;;8.93;4.05;;;;;;;;;;6242138;23;20376;-68
2023/10/14 01:36:02;;;;;;;6.07;4.43;;;;;;;;;;6241918;23;20066;-68
2023/10/14 01:38:30;;;;;;;6.85;3.63;;;;;;;;;;6242075;23;20019;-68
2023/10/14 01:40:57;;;;;;;6.82;3.55;;;;;;;;;;6241890;23;20012;-69
2023/10/14 01:43:30;;;;;;;8.43;3.70;;;;;;;;;;6241890;23;20456;-69
2023/10/14 01:48:25;;;;;;;6.07;3.67;;;;;;;;;;6241772;23;20099;-68
2023/10/14 01:50:55;;;;;;;6.75;3.60;;;;;;;;;;6215111;23;20039;-68
2023/10/14 01:53:28;;;;;;;8.73;4.30;;;;;;;;;;6241920;23;20012;-69
2023/10/14 01:55:55;;;;;;;6.07;3.53;;;;;;;;;;6215710;23;20016;-68
2023/10/14 01:58:22;;;;;;;7.47;3.67;;;;;;;;;;6216889;23;20083;-69
2023/10/14 02:03:46;;;;;;;6.90;3.75;;;;;;;;;;6242661;23;20098;-69
2023/10/14 02:06:17;;;;;;;5.18;3.15;;;;;;;;;;6243877;23;20015;-68
2023/10/14 02:08:51;;;;;;;4.38;3.22;;;;;;;;;;6218044;23;20503;-68
2023/10/14 02:11:20;;;;;;;8.40;4.32;;;;;;;;;;6243862;23;20020;-70
2023/10/14 02:13:52;;;;;;;4.95;3.47;;;;;;;;;;6244027;23;20016;-69
2023/10/14 02:16:41;;;;;;;6.03;3.55;;;;;;;;;;6243981;23;20011;-69
2023/10/14 02:21:57;;;;;;;4.63;3.55;;;;;;;;;;6191982;23;20463;-69
2023/10/14 02:24:25;;;;;;;6.00;3.00;;;;;;;;;;6244098;23;20016;-69
2023/10/14 02:26:52;;;;;;;6.18;3.53;;;;;;;;;;6243501;23;20065;-68
2023/10/14 02:29:19;;;;;;;6.47;3.70;;;;;;;;;;6243713;23;20452;-67
2023/10/14 02:31:46;;;;;;;4.68;3.20;;;;;;;;;;6243700;23;20012;-68
2023/10/14 02:34:15;;;;;;;4.95;2.58;;;;;;;;;;6243673;23;20020;-69
2023/10/14 02:36:48;;;;;;;6.93;3.43;;;;;;;;;;6244193;23;20016;-68
2023/10/14 02:39:15;;;;;;;4.63;2.90;;;;;;;;;;6244650;23;20047;-67
2023/10/14 02:41:44;;;;;;;5.30;3.58;;;;;;;;;;6243486;23;20008;-71
2023/10/14 02:44:20;;;;;;;4.95;3.20;;;;;;;;;;6243611;23;20023;-71
2023/10/14 02:46:46;;;;;;;4.07;3.13;;;;;;;;;;6243802;23;20039;-70
2023/10/14 02:49:18;;;;;;;5.30;3.28;;;;;;;;;;6243541;23;20107;-70
2023/10/14 02:51:45;;;;;;;4.38;2.40;;;;;;;;;;6243722;23;20016;-70
2023/10/14 02:59:20;;;;;;;9.57;3.17;;;;;;;;;;6243959;23;20146;-70
2023/10/14 03:01:51;;;;;;;3.95;2.70;;;;;;;;;;6243625;23;20529;-70
2023/10/14 03:04:23;;;;;;;10.30;2.58;;;;;;;;;;6193264;23;20012;-70
2023/10/14 03:06:53;;;;;;;2.70;2.25;;;;;;;;;;6243691;23;20039;-70
2023/10/14 03:09:20;;;;;;;5.15;2.75;;;;;;;;;;6243597;23;20364;-70
2023/10/14 03:11:49;;;;;;;6.80;2.78;;;;;;;;;;6216659;23;20024;-69
2023/10/14 03:14:16;;;;;;;4.22;2.72;;;;;;;;;;6243314;23;20019;-68
2023/10/14 03:16:44;;;;;;;6.15;2.65;;;;;;;;;;6243153;23;20036;-68
2023/10/14 03:19:11;;;;;;;4.63;2.72;;;;;;;;;;6243231;23;20022;-66
2023/10/14 03:21:52;;;;;;;5.55;2.40;;;;;;;;;;6243260;23;20360;-68
2023/10/14 03:24:18;;;;;;;4.60;2.92;;;;;;;;;;6216637;23;20012;-67
2023/10/14 03:26:47;;;;;;;8.13;2.72;;;;;;;;;;6243325;23;20605;-67
2023/10/14 03:29:16;;;;;;;5.93;2.75;;;;;;;;;;6243054;23;20317;-67
2023/10/14 03:31:44;;;;;;;7.72;2.83;;;;;;;;;;6243133;23;20035;-68
2023/10/14 03:34:11;;;;;;;6.70;3.13;;;;;;;;;;6243139;23;20111;-67
2023/10/14 03:36:42;;;;;;;8.40;3.33;;;;;;;;;;6243147;23;20012;-68
2023/10/14 03:39:37;;;;;;;11.48;3.42;;;;;;;;;;6243140;23;20021;-67
2023/10/14 03:42:10;;;;;;;10.80;4.07;;;;;;;;;;6242812;23;20019;-68
2023/10/14 03:44:37;;;;;;;5.63;2.78;;;;;;;;;;6243172;23;20008;-68
2023/10/14 03:47:03;;;;;;;8.60;2.70;;;;;;;;;;6242856;23;20012;-69
2023/10/14 03:49:32;;;;;;;5.20;3.17;;;;;;;;;;6243160;23;20122;-68
2023/10/14 03:51:58;;;;;;;5.00;2.83;;;;;;;;;;6242734;23;20004;-68
2023/10/14 03:54:26;;;;;;;3.78;2.80;;;;;;;;;;6243174;23;20109;-68
2023/10/14 03:56:52;;;;;;;3.10;2.83;;;;;;;;;;6243118;23;20091;-68
2023/10/14 03:59:22;;;;;;;5.43;3.40;;;;;;;;;;6242658;23;20043;-68
2023/10/14 04:01:54;;;;;;;3.35;2.55;;;;;;;;;;6242938;23;20445;-66
2023/10/14 04:04:21;;;;;;;11.05;3.10;;;;;;;;;;6217575;23;20024;-67
2023/10/14 04:09:43;;;;;;;3.03;2.70;;;;;;;;;;6243020;23;20020;-67
2023/10/14 04:12:09;;;;;;;4.72;2.35;;;;;;;;;;6242576;23;20099;-68
2023/10/14 04:14:36;;;;;;;5.55;2.85;;;;;;;;;;6242841;23;20016;-67
2023/10/14 04:17:10;;;;;;;5.75;2.92;;;;;;;;;;6242556;23;20015;-68
2023/10/14 04:19:45;;;;;;;5.13;2.70;;;;;;;;;;6217729;23;20018;-69
2023/10/14 04:22:45;;;;;;;7.85;3.53;;;;;;;;;;6242443;23;20019;-67
2023/10/14 04:31:00;;;;;;;7.30;2.65;;;;;;;;;;6242364;23;20104;-68
2023/10/14 04:35:58;;;;;;;3.95;2.63;;;;;;;;;;6242952;23;20020;-68
2023/10/14 04:38:37;;;;;;;10.45;3.22;;;;;;;;;;6242800;23;20022;-68
2023/10/14 04:41:24;;;;;;;7.97;3.38;;;;;;;;;;6242426;23;20008;-67
2023/10/14 04:44:00;;;;;;;7.07;2.90;;;;;;;;;;6242431;23;20023;-68
2023/10/14 04:46:33;;;;;;;7.80;4.13;;;;;;;;;;6242587;23;20078;-69
2023/10/14 04:48:59;;;;;;;9.65;3.45;;;;;;;;;;6215510;23;20027;-70
2023/10/14 04:51:36;;;;;;;5.93;3.28;;;;;;;;;;6215856;23;20384;-68
2023/10/14 04:54:02;;;;;;;10.23;3.97;;;;;;;;;;6242356;23;20020;-68
2023/10/14 04:56:31;;;;;;;8.63;3.15;;;;;;;;;;6242653;23;20008;-67
2023/10/14 04:58:57;;;;;;;4.72;2.45;;;;;;;;;;6215580;23;20012;-69
2023/10/14 05:01:27;;;;;;;4.50;2.42;;;;;;;;;;6242146;23;20012;-68
2023/10/14 05:03:57;;;;;;;4.40;2.67;;;;;;;;;;6242387;23;20016;-68
2023/10/14 05:06:23;;;;;;;7.07;2.95;;;;;;;;;;6242100;23;20019;-67
2023/10/14 05:08:51;;;;;;;4.25;2.55;;;;;;;;;;6242302;23;20024;-68
2023/10/14 05:11:22;;;;;;;5.47;3.30;;;;;;;;;;6241660;23;20024;-69
2023/10/14 05:16:52;;;;;;;4.57;2.72;;;;;;;;;;6219706;23;20518;-69
2023/10/14 05:20:16;;;;;;;3.22;2.53;;;;;;;;;;6219114;23;20019;-69
2023/10/14 05:22:24;;;;;;;9.20;2.88;;;;;;;;;;6229663;23;20099;-69
2023/10/14 05:25:03;;;;;;;6.43;3.22;;;;;;;;;;6242253;23;20470;-67
2023/10/14 05:27:46;;;;;;;9.02;3.08;;;;;;;;;;6242082;23;20007;-68
2023/10/14 05:30:15;;;;;;;9.15;3.33;;;;;;;;;;6241776;23;20028;-67
2023/10/14 05:32:43;;;;;;;5.30;3.05;;;;;;;;;;6241848;23;20043;-73
2023/10/14 05:35:10;;;;;;;10.55;3.75;;;;;;;;;;6241747;23;20015;-73
2023/10/14 05:37:41;;;;;;;9.75;3.40;;;;;;;;;;6241805;23;20008;-73
2023/10/14 05:40:15;;;;;;;11.15;3.45;;;;;;;;;;6215068;23;20008;-73
2023/10/14 05:42:45;;;;;;;13.10;4.15;;;;;;;;;;6216717;23;20099;-72
2023/10/14 05:45:11;;;;;;;5.75;3.20;;;;;;;;;;6215187;23;20522;-74
2023/10/14 05:47:39;;;;;;;11.98;3.65;;;;;;;;;;6242449;23;20093;-73
2023/10/14 05:50:08;;;;;;;5.68;3.33;;;;;;;;;;6213051;23;20027;-73
2023/10/14 05:52:34;;;;;;;10.57;4.18;;;;;;;;;;6240613;23;20012;-73
2023/10/14 05:55:05;;;;;;;4.18;3.47;;;;;;;;;;6214360;23;20016;-72
2023/10/14 05:57:34;;;;;;;13.25;3.53;;;;;;;;;;6240912;23;20363;-72
2023/10/14 06:00:02;;;;;;;9.70;3.70;;;;;;;;;;6214918;23;20008;-69
2023/10/14 06:02:31;;;;;;;11.25;3.13;;;;;;;;;;6240991;23;20036;-70
2023/10/14 06:04:57;;;;;;;5.18;3.15;;;;;;;;;;6241755;23;20008;-68
2023/10/14 06:07:23;;;;;;;5.95;3.22;;;;;;;;;;6241030;23;20012;-69
2023/10/14 06:09:49;;;;;;;7.93;3.55;;;;;;;;;;6214440;23;20027;-68
2023/10/14 06:12:16;;;;;;;11.77;3.22;;;;;;;;;;6241972;23;20016;-71
2023/10/14 06:14:42;;;;;;;4.55;3.00;;;;;;;;;;6241643;23;20399;-69
2023/10/14 06:17:09;;;;;;;4.43;3.30;;;;;;;;;;6241243;23;20063;-71
2023/10/14 06:19:38;;;;;;;8.70;3.75;;;;;;;;;;6241674;23;20629;-69
2023/10/14 06:22:07;;;;;;;9.57;3.50;;;;;;;;;;6190544;23;20011;-71
2023/10/14 06:24:33;;;;;;;8.48;3.63;;;;;;;;;;6242020;23;20012;-71
2023/10/14 06:27:08;;;;;;;4.32;2.92;;;;;;;;;;6241488;23;20012;-70
2023/10/14 06:29:35;;;;;;;7.18;3.13;;;;;;;;;;6241432;23;20028;-69
2023/10/14 06:32:03;;;;;;;11.90;4.05;;;;;;;;;;6214672;23;20464;-70
2023/10/14 06:34:31;;;;;;;7.70;3.53;;;;;;;;;;6241216;23;20012;-70
2023/10/14 06:37:01;;;;;;;7.72;3.78;;;;;;;;;;6215123;23;20035;-69
2023/10/14 06:39:27;;;;;;;9.32;3.60;;;;;;;;;;6240528;23;20012;-69
2023/10/14 06:41:53;;;;;;;8.05;3.42;;;;;;;;;;6240514;23;20016;-68
2023/10/14 06:44:21;;;;;;;7.03;3.97;;;;;;;;;;6213416;23;20039;-71
2023/10/14 06:46:48;;;;;;;9.15;3.25;;;;;;;;;;6241315;23;20362;-71
2023/10/14 06:49:16;;;;;;;8.13;3.35;;;;;;;;;;6240889;23;20409;-70
2023/10/14 06:51:43;;;;;;;4.30;2.90;;;;;;;;;;6215152;23;20036;-70
2023/10/14 06:54:14;;;;;;;17.10;4.10;;;;;;;;;;6242742;23;20102;-70
2023/10/14 06:56:40;;;;;;;6.07;3.55;;;;;;;;;;6243361;23;20411;-70
2023/10/14 06:59:06;;;;;;;10.25;3.80;;;;;;;;;;6242588;23;20015;-70
2023/10/14 07:01:33;;;;;;;7.95;3.75;;;;;;;;;;6242819;23;20008;-69
2023/10/14 07:04:00;;;;;;;8.63;3.85;;;;;;;;;;6242812;23;20012;-70
2023/10/14 07:06:27;;;;;;;14.77;4.70;;;;;;;;;;6216038;23;20360;-71
2023/10/14 07:08:53;;;;;;;13.02;3.72;;;;;;;;;;6241753;23;20028;-71
2023/10/14 07:11:19;;;;;;;6.75;3.35;;;;;;;;;;6242860;23;20465;-70
2023/10/14 07:13:47;;;;;;;6.10;3.50;;;;;;;;;;6243422;23;20023;-71
2023/10/14 07:16:13;;;;;;;8.98;3.78;;;;;;;;;;6243120;23;20046;-70
2023/10/14 07:18:40;;;;;;;6.30;3.65;;;;;;;;;;6243317;23;20008;-71
2023/10/14 07:21:12;;;;;;;14.65;3.78;;;;;;;;;;6243155;23;20012;-72
2023/10/14 07:23:39;;;;;;;6.13;2.97;;;;;;;;;;6243214;23;20043;-71
2023/10/14 07:26:06;;;;;;;11.23;3.90;;;;;;;;;;6191457;23;20489;-71
2023/10/14 07:28:32;;;;;;;6.22;3.25;;;;;;;;;;6243191;23;20472;-71
2023/10/14 07:30:59;;;;;;;11.48;3.65;;;;;;;;;;6243297;23;20012;-71
2023/10/14 07:33:25;;;;;;;6.00;4.03;;;;;;;;;;6242074;23;20012;-71
2023/10/14 07:35:52;;;;;;;7.30;3.40;;;;;;;;;;6243664;23;20015;-71
2023/10/14 07:38:20;;;;;;;9.30;3.58;;;;;;;;;;6243295;23;20008;-71
2023/10/14 07:40:49;;;;;;;7.50;3.72;;;;;;;;;;6243675;23;20144;-72
2023/10/14 07:43:15;;;;;;;10.95;3.88;;;;;;;;;;6243048;23;20008;-71
2023/10/14 07:45:42;;;;;;;11.52;3.42;;;;;;;;;;6243556;23;20488;-71
2023/10/14 07:48:09;;;;;;;6.82;2.95;;;;;;;;;;6242997;23;20012;-70
2023/10/14 07:50:39;;;;;;;6.35;3.67;;;;;;;;;;6216843;23;20026;-71
2023/10/14 07:53:08;;;;;;;5.95;3.03;;;;;;;;;;6216773;23;20296;-72
2023/10/14 07:55:37;;;;;;;4.25;2.40;;;;;;;;;;6217562;23;20016;-72
2023/10/14 07:58:08;;;;;;;8.93;3.08;;;;;;;;;;6243520;23;20453;-71
2023/10/14 08:00:38;;;;;;;7.85;3.13;;;;;;;;;;6243566;23;20011;-71
2023/10/14 08:03:07;;;;;;;7.38;2.47;;;;;;;;;;6243257;23;20046;-71
2023/10/14 08:05:34;;;;;;;8.15;2.95;;;;;;;;;;6243066;23;20011;-71
2023/10/14 08:08:05;;;;;;;7.68;3.63;;;;;;;;;;6243300;23;20008;-71
2023/10/14 08:10:32;;;;;;;4.75;2.95;;;;;;;;;;6242743;23;20110;-71
2023/10/14 08:13:04;;;;;;;6.53;3.63;;;;;;;;;;6216579;23;20471;-71
2023/10/14 08:15:30;;;;;;;8.05;3.65;;;;;;;;;;6242992;23;20016;-70
2023/10/14 08:18:00;;;;;;;8.73;3.88;;;;;;;;;;6191485;23;20415;-71
2023/10/14 08:20:31;;;;;;;4.65;2.83;;;;;;;;;;6242937;23;20012;-70
2023/10/14 08:22:57;;;;;;;5.60;3.53;;;;;;;;;;6242874;23;20077;-71
2023/10/14 08:25:25;;;;;;;5.78;3.60;;;;;;;;;;6242906;23;20012;-70
2023/10/14 08:27:51;;;;;;;7.10;3.40;;;;;;;;;;6241708;23;20019;-70
2023/10/14 08:30:17;;;;;;;4.57;3.70;;;;;;;;;;6242087;23;20024;-69
2023/10/14 08:32:44;;;;;;;7.15;3.08;;;;;;;;;;6215657;23;20059;-71
2023/10/14 08:35:16;;;;;;;4.45;2.63;;;;;;;;;;6242376;23;20012;-70
2023/10/14 08:37:48;;;;;;;10.30;3.03;;;;;;;;;;6242428;23;20070;-71
2023/10/14 08:40:16;;;;;;;6.95;3.00;;;;;;;;;;6241748;23;20091;-71
2023/10/14 08:42:46;;;;;;;4.47;2.95;;;;;;;;;;6242311;23;20020;-73
2023/10/14 08:45:12;;;;;;;9.57;3.65;;;;;;;;;;6241203;23;20015;-73
2023/10/14 08:47:40;;;;;;;5.07;3.38;;;;;;;;;;6190232;23;20031;-72
2023/10/14 08:50:09;;;;;;;7.28;3.47;;;;;;;;;;6214002;23;20488;-73
2023/10/14 08:52:37;;;;;;;5.35;3.15;;;;;;;;;;6215411;23;20008;-73
2023/10/14 08:55:06;;;;;;;9.57;3.97;;;;;;;;;;6242223;23;20084;-73
2023/10/14 08:57:34;;;;;;;5.28;3.65;;;;;;;;;;6215617;23;20529;-72
2023/10/14 08:59:59;;;;;;;7.00;3.75;;;;;;;;;;6190507;23;20016;-71
2023/10/14 09:02:25;;;;;;;6.43;3.72;;;;;;;;;;6241920;23;20018;-72
2023/10/14 09:04:51;;;;;;;6.78;3.88;;;;;;;;;;6241609;23;20018;-73
2023/10/14 09:07:20;;;;;;;6.35;3.72;;;;;;;;;;6241659;23;20016;-74
2023/10/14 09:09:46;;;;;;;4.35;3.20;;;;;;;;;;6190164;23;20103;-71
2023/10/14 09:12:12;;;;;;;4.95;3.28;;;;;;;;;;6242099;23;20686;-71
2023/10/14 09:14:39;;;;;;;5.68;3.53;;;;;;;;;;6241573;23;20530;-71
2023/10/14 09:17:05;;;;;;;8.48;4.03;;;;;;;;;;6242290;23;20008;-69
2023/10/14 09:19:45;;;;;;;11.52;4.38;;;;;;;;;;6164428;23;20051;-69
2023/10/14 09:22:33;;;;;;;5.93;3.30;;;;;;;;;;6241730;23;20012;-71
2023/10/14 09:24:59;;;;;;;5.10;3.75;;;;;;;;;;6239723;23;20008;-71
2023/10/14 09:27:34;;;;;;;4.07;3.20;;;;;;;;;;6241201;23;20023;-70
2023/10/14 09:30:03;;;;;;;5.20;4.20;;;;;;;;;;6242271;23;20031;-71
2023/10/14 09:32:32;;;;;;;8.00;5.40;;;;;;;;;;6241749;23;20015;-70
2023/10/14 09:34:58;;;;;;;9.00;5.07;;;;;;;;;;6242129;23;20066;-70
2023/10/14 09:37:25;;;;;;;6.93;4.55;;;;;;;;;;6215557;23;20062;-71
2023/10/14 09:39:57;;;;;;;6.25;3.60;;;;;;;;;;6215235;23;20062;-71
2023/10/14 09:42:24;;;;;;;7.28;3.83;;;;;;;;;;6241898;23;20019;-70
2023/10/14 09:44:51;;;;;;;6.05;3.83;;;;;;;;;;6215792;23;20410;-72
2023/10/14 09:47:19;;;;;;;3.92;3.58;;;;;;;;;;6215632;23;20019;-71
2023/10/14 09:49:46;;;;;;;7.97;3.83;;;;;;;;;;6215299;23;20020;-71
2023/10/14 09:52:14;;;;;;;3.90;2.92;;;;;;;;;;6215453;23;20085;-71
2023/10/14 09:54:41;;;;;;;6.22;3.45;;;;;;;;;;6215371;23;20016;-70
2023/10/14 09:57:10;;;;;;;11.02;3.17;;;;;;;;;;6215585;23;20012;-71
2023/10/14 09:59:36;;;;;;;7.07;3.97;;;;;;;;;;6214668;23;20066;-70
2023/10/14 10:02:02;;;;;;;6.07;3.83;;;;;;;;;;6242298;23;20076;-71
2023/10/14 10:04:30;;;;;;;6.47;3.85;;;;;;;;;;6241789;23;20012;-70
2023/10/14 10:06:56;;;;;;;4.38;3.33;;;;;;;;;;6215517;23;20035;-71
2023/10/14 10:09:34;;;;;;;4.65;3.25;;;;;;;;;;6241688;23;20086;-70
2023/10/14 10:12:04;;;;;;;5.65;3.20;;;;;;;;;;6215215;23;20024;-69
2023/10/14 10:14:36;;;;;;;5.82;3.53;;;;;;;;;;6241238;23;20014;-69
2023/10/14 10:17:08;;;;;;;5.30;3.70;;;;;;;;;;6215315;23;20536;-69
2023/10/14 10:19:53;;;;;;;5.82;3.63;;;;;;;;;;6216420;23;20012;-69
2023/10/14 10:22:20;;;;;;;7.95;3.30;;;;;;;;;;6241651;23;20449;-69
2023/10/14 10:24:46;;;;;;;6.57;3.80;;;;;;;;;;6214888;23;20019;-69
2023/10/14 10:27:14;;;;;;;4.18;2.85;;;;;;;;;;6242300;23;20020;-69
2023/10/14 10:29:45;;;;;;;4.47;3.25;;;;;;;;;;6244145;23;20407;-69
2023/10/14 10:32:17;;;;;;;4.68;3.45;;;;;;;;;;6244821;23;20027;-70
2023/10/14 10:35:02;;;;;;;5.20;2.85;;;;;;;;;;6217467;23;20047;-70
2023/10/14 10:37:29;;;;;;;3.25;2.83;;;;;;;;;;6243021;23;20012;-70
2023/10/14 10:39:55;;;;;;;5.80;3.95;;;;;;;;;;6243702;23;20036;-70
2023/10/14 10:42:21;;;;;;;7.28;3.10;;;;;;;;;;6243526;23;20008;-70
2023/10/14 10:44:48;;;;;;;6.93;3.17;;;;;;;;;;6216576;23;20404;-70
2023/10/14 10:47:15;;;;;;;5.47;3.95;;;;;;;;;;6243460;23;20048;-71
2023/10/14 10:49:58;;;;;;;5.07;2.83;;;;;;;;;;6216222;23;20024;-69
2023/10/14 10:52:28;;;;;;;6.13;3.40;;;;;;;;;;6216865;23;20015;-70
2023/10/14 10:54:56;;;;;;;3.45;2.35;;;;;;;;;;6243359;23;20027;-71
2023/10/14 10:57:21;;;;;;;3.55;3.20;;;;;;;;;;6216929;23;20061;-71
2023/10/14 10:59:47;;;;;;;3.80;2.88;;;;;;;;;;6241773;23;20467;-70
2023/10/14 11:02:15;;;;;;;6.78;3.90;;;;;;;;;;6243054;23;20040;-70
2023/10/14 11:04:42;;;;;;;3.33;3.03;;;;;;;;;;6243130;23;20023;-71
2023/10/14 11:07:23;;;;;;;4.38;3.30;;;;;;;;;;6243557;23;20008;-70
2023/10/14 11:09:49;;;;;;;4.32;3.05;;;;;;;;;;6243267;23;20498;-70
2023/10/14 11:12:18;;;;;;;4.78;3.42;;;;;;;;;;6243672;23;20039;-70
2023/10/14 11:14:44;;;;;;;10.75;3.28;;;;;;;;;;6243193;23;20012;-70
2023/10/14 11:17:10;;;;;;;4.72;3.22;;;;;;;;;;6243572;23;20015;-70
2023/10/14 11:19:36;;;;;;;4.20;3.70;;;;;;;;;;6243058;23;20012;-71
2023/10/14 11:22:03;;;;;;;5.55;3.70;;;;;;;;;;6243186;23;20519;-71
2023/10/14 11:24:30;;;;;;;4.13;3.33;;;;;;;;;;6216414;23;20016;-71
2023/10/14 11:26:57;;;;;;;3.92;2.67;;;;;;;;;;6243689;23;20043;-71
2023/10/14 11:29:23;;;;;;;6.07;3.03;;;;;;;;;;6244116;23;20330;-70
2023/10/14 11:31:57;;;;;;;4.30;3.25;;;;;;;;;;6193848;23;20015;-70
2023/10/14 11:34:23;;;;;;;5.82;4.18;;;;;;;;;;6245270;23;20039;-71
2023/10/14 11:36:49;;;;;;;6.47;3.53;;;;;;;;;;6219031;23;20040;-70
2023/10/14 11:39:18;;;;;;;5.03;3.67;;;;;;;;;;6244576;23;20069;-71
2023/10/14 11:41:51;;;;;;;4.72;3.03;;;;;;;;;;6217674;23;20008;-71
2023/10/14 11:44:17;;;;;;;3.85;3.17;;;;;;;;;;6243298;23;20540;-70
2023/10/14 11:46:44;;;;;;;4.75;4.22;;;;;;;;;;6242816;23;20437;-71
2023/10/14 11:49:10;;;;;;;6.90;3.60;;;;;;;;;;6216079;23;20071;-71
2023/10/14 11:51:43;;;;;;;5.32;3.70;;;;;;;;;;6242625;23;20065;-70
2023/10/14 11:54:11;;;;;;;6.00;4.10;;;;;;;;;;6243127;23;20012;-71
2023/10/14 11:56:41;;;;;;;4.05;3.70;;;;;;;;;;6243551;23;20120;-70
2023/10/14 11:59:07;;;;;;;7.00;3.88;;;;;;;;;;6243250;23;20015;-71
2023/10/14 12:01:34;;;;;;;6.28;3.70;;;;;;;;;;6215666;23;20360;-71
2023/10/14 12:04:03;;;;;;;3.70;3.25;;;;;;;;;;6243222;23;20089;-71
2023/10/14 12:06:34;;;;;;;8.10;4.10;;;;;;;;;;6242565;23;20011;-71
2023/10/14 12:09:05;;;;;;;9.27;3.80;;;;;;;;;;6242815;23;20024;-71
2023/10/14 12:11:41;;;;;;;8.65;3.83;;;;;;;;;;6242305;23;20027;-71
2023/10/14 12:14:11;;;;;;;4.82;3.85;;;;;;;;;;6242784;23;20016;-71
2023/10/14 12:16:38;;;;;;;5.50;4.30;;;;;;;;;;6242342;23;20015;-71
2023/10/14 12:19:04;;;;;;;4.82;3.47;;;;;;;;;;6242855;23;20255;-71
2023/10/14 12:21:30;;;;;;;8.48;3.60;;;;;;;;;;6242066;23;20008;-70
2023/10/14 12:24:02;;;;;;;4.38;3.92;;;;;;;;;;6242406;23;20071;-71
2023/10/14 12:26:30;;;;;;;4.22;3.85;;;;;;;;;;6242499;23;20014;-72
2023/10/14 12:28:56;;;;;;;5.28;3.85;;;;;;;;;;6242340;23;20038;-70
2023/10/14 12:31:25;;;;;;;4.50;3.80;;;;;;;;;;6242556;23;20046;-70
2023/10/14 12:33:53;;;;;;;5.28;3.95;;;;;;;;;;6241996;23;20035;-70
2023/10/14 12:36:19;;;;;;;6.65;3.75;;;;;;;;;;6242421;23;20012;-70
2023/10/14 12:38:45;;;;;;;5.93;3.22;;;;;;;;;;6190570;23;20012;-71
2023/10/14 12:41:21;;;;;;;11.05;4.35;;;;;;;;;;6242261;23;20460;-71
2023/10/14 12:43:51;;;;;;;8.15;4.07;;;;;;;;;;6242274;23;20412;-72
2023/10/14 12:48:43;;;;;;;5.72;3.47;;;;;;;;;;6241525;23;20103;-71
2023/10/14 12:51:11;;;;;;;6.07;4.32;;;;;;;;;;6241924;23;20625;-70
2023/10/14 12:53:46;;;;;;;4.38;3.97;;;;;;;;;;6241919;23;20015;-70
2023/10/14 12:56:15;;;;;;;5.60;3.67;;;;;;;;;;6242293;23;20019;-71
2023/10/14 12:58:45;;;;;;;3.75;3.30;;;;;;;;;;6241923;23;20522;-71
2023/10/14 13:01:17;;;;;;;6.13;3.85;;;;;;;;;;6215486;23;20027;-71
2023/10/14 13:03:45;;;;;;;3.83;3.53;;;;;;;;;;6215033;23;20020;-70
2023/10/14 13:06:13;;;;;;;7.43;4.22;;;;;;;;;;6242218;23;20084;-70
2023/10/14 13:08:39;;;;;;;4.30;3.80;;;;;;;;;;6241565;23;20012;-70
2023/10/14 13:11:05;;;;;;;5.50;3.70;;;;;;;;;;6241456;23;20321;-71
2023/10/14 13:13:31;;;;;;;8.13;4.07;;;;;;;;;;6214611;23;20016;-70
2023/10/14 13:15:57;;;;;;;4.85;3.72;;;;;;;;;;6241835;23;20449;-71
2023/10/14 13:18:27;;;;;;;6.97;4.25;;;;;;;;;;6165593;23;20432;-71
2023/10/14 13:20:58;;;;;;;5.93;4.00;;;;;;;;;;6241893;23;20020;-70
2023/10/14 13:23:25;;;;;;;6.97;4.05;;;;;;;;;;6242244;23;20008;-73
2023/10/14 13:25:50;;;;;;;9.57;5.20;;;;;;;;;;6241802;23;20012;-70
2023/10/14 13:28:17;;;;;;;4.32;3.53;;;;;;;;;;6241971;23;20008;-70
2023/10/14 13:30:46;;;;;;;4.50;4.00;;;;;;;;;;6241572;23;20115;-71
2023/10/14 13:33:16;;;;;;;7.07;4.47;;;;;;;;;;6190471;23;20369;-71
2023/10/14 13:35:45;;;;;;;12.77;5.03;;;;;;;;;;6241817;23;20360;-71
2023/10/14 13:38:12;;;;;;;6.10;4.50;;;;;;;;;;6215312;23;20051;-70
2023/10/14 13:40:38;;;;;;;6.22;4.28;;;;;;;;;;6241875;23;20012;-71
2023/10/14 13:43:04;;;;;;;9.90;4.22;;;;;;;;;;6215532;23;20471;-70
2023/10/14 13:45:30;;;;;;;5.20;4.15;;;;;;;;;;6242016;23;20035;-70
2023/10/14 13:48:05;;;;;;;11.95;4.13;;;;;;;;;;6243144;23;20005;-69
2023/10/14 13:50:31;;;;;;;5.40;4.43;;;;;;;;;;6215217;23;20050;-70
2023/10/14 13:52:58;;;;;;;5.25;4.63;;;;;;;;;;6242586;23;20015;-70
2023/10/14 13:55:24;;;;;;;6.38;5.13;;;;;;;;;;6242330;23;20476;-70
2023/10/14 13:57:50;;;;;;;3.90;3.60;;;;;;;;;;6241757;23;20032;-70
2023/10/14 14:00:19;;;;;;;5.78;4.35;;;;;;;;;;6242029;23;20130;-70
2023/10/14 14:02:46;;;;;;;5.32;4.40;;;;;;;;;;6241782;23;20016;-70
2023/10/14 14:05:12;;;;;;;5.32;4.65;;;;;;;;;;6241961;23;20066;-71
2023/10/14 14:07:39;;;;;;;6.32;4.20;;;;;;;;;;6215202;23;20444;-71
2023/10/14 14:10:05;;;;;;;5.70;4.20;;;;;;;;;;6241843;23;20031;-71
2023/10/14 14:12:32;;;;;;;5.05;3.80;;;;;;;;;;6242168;23;20020;-70
2023/10/14 14:14:58;;;;;;;4.15;3.65;;;;;;;;;;6242167;23;20015;-70
2023/10/14 14:17:26;;;;;;;5.97;5.07;;;;;;;;;;6242124;23;20012;-70
2023/10/14 14:19:52;;;;;;;6.60;4.22;;;;;;;;;;6241624;23;20019;-70
2023/10/14 14:22:18;;;;;;;4.78;4.25;;;;;;;;;;6242125;23;20019;-70
2023/10/14 14:24:45;;;;;;;6.85;4.30;;;;;;;;;;6241477;23;20012;-70
2023/10/14 14:27:11;;;;;;;5.28;4.05;;;;;;;;;;6241832;23;20023;-69
2023/10/14 14:29:37;;;;;;;5.35;4.10;;;;;;;;;;6241294;23;20020;-69
2023/10/14 14:32:05;;;;;;;5.07;4.57;;;;;;;;;;6241807;23;20008;-70
2023/10/14 14:34:31;;;;;;;5.57;4.68;;;;;;;;;;6241772;23;20012;-69
2023/10/14 14:36:57;;;;;;;9.73;5.15;;;;;;;;;;6215143;23;20019;-70
2023/10/14 14:39:24;;;;;;;4.88;4.10;;;;;;;;;;6241694;23;20039;-70
2023/10/14 14:42:00;;;;;;;5.85;5.15;;;;;;;;;;6214436;23;20008;-69
2023/10/14 14:44:27;;;;;;;5.32;4.20;;;;;;;;;;6214820;23;20040;-70
2023/10/14 14:46:53;;;;;;;5.80;5.18;;;;;;;;;;6214788;23;20016;-69
2023/10/14 14:49:19;;;;;;;5.97;4.47;;;;;;;;;;6241621;23;20071;-70
2023/10/14 14:51:45;;;;;;;5.75;5.25;;;;;;;;;;6214987;23;20019;-70
2023/10/14 14:54:11;;;;;;;7.47;5.53;;;;;;;;;;6214980;23;20094;-69
2023/10/14 14:56:37;;;;;;;4.80;4.40;;;;;;;;;;6241344;23;20012;-70
2023/10/14 14:59:03;;;;;;;6.32;4.93;;;;;;;;;;6214621;23;20023;-70
2023/10/14 15:01:31;;;;;;;5.38;4.88;;;;;;;;;;6241399;23;20012;-70
2023/10/14 15:03:58;;;;;;;7.57;5.18;;;;;;;;;;6240897;23;20527;-69
2023/10/14 15:06:24;;;;;;;4.70;4.35;;;;;;;;;;6241538;23;20019;-69
2023/10/14 15:08:51;;;;;;;5.68;5.07;;;;;;;;;;6240771;23;20020;-69
2023/10/14 15:11:25;;;;;;;5.78;4.75;;;;;;;;;;6214342;23;20028;-69
2023/10/14 15:13:51;;;;;;;6.05;5.28;;;;;;;;;;6242142;23;20054;-69
2023/10/14 15:16:21;;;;;;;6.97;5.80;;;;;;;;;;6191524;23;20452;-68
2023/10/14 15:18:47;;;;;;;5.23;4.77;;;;;;;;;;6242553;23;20011;-69
2023/10/14 15:21:13;;;;;;;6.57;5.40;;;;;;;;;;6216259;23;20031;-69